Hauptseite
METAR-TAF:

METAR-TAF

Flughäfen :

Kuwait-Stadt, Kuwait

Flughafen Kuwait

Breite: 29-13N, Länge: 047-59E, Höhe: 55 m

Beobachtung

Neuester Wetterbericht von vor 1 Stunde und 35 Minuten, um 23:00 UTC
Wind 4 kt aus Nordwest
Temperatur 25°C
Luftfeuchtigkeit 28%
Luftdruck 1012 hPa
Sichtweite 10 km oder mehr
keine Wolken unter 1500 m und keine Kumulonimbus oder Gewitterwolken

METAR: OKBK 242300Z 32004KT CAVOK 25/05 Q1012 NOSIG

Zeit: 03:35 (00:35 UTC)

Prognose

Neuester Wetterbericht von vor 7 Stunden und 50 Minuten, um 16:45 UTC
Gültige Prognose vom 24 um 18 UTC bis 25 um 24 UTC
Wind 3 kt aus unterschiedlichen Richtungen
Sichtweite: 6000 m
Aufgelockert bewölkt in der Höhe von 4000 ft
Übergehend zu
vom 25 um 03 UTC bis 25 um 05 UTC
Wind 8 kt aus Nord/Nordost

TAF: OKBK 241645Z 2418/2524 VRB03KT 6000 SCT040 BECMG 2503/2505 02008KT

Wetterbeobachtungen und Prognosen von mehr als 4000 Flughäfen (METAR und TAF Bericht).

Die verfügbaren Stationen werden durch gelbe und rote Markierungen auf der Karte dargestellt.

Führen Sie die Maus auf sie, um den Namen der Station zu sehen.

Darauf klicken, um die Beobachtung von Wetterbeobachtungen und Prognosen zu sehen.

Um die Karte zu ändern : klicken Sie auf den grünen Tasten mit einem schwarzen Kreuz Zum Vergrößern, auf den grünen Button mit einem Gedankenstrich zu verkleinern, oder auf die grünen Pfeile für benachbarte Karten.


METAR-TAF: